Myra Eckstein — WDF9473 — position and weather

sailwx.info

Track history (hours):
 
Tides and Currents Weather Stations Pressure Air Temp Water Temp Dewpoint Dewpoint Depression Visibility Wind Speed Wind Dir Waves Ship Positions

Myra Eckstein

Owner: Marquette Transportation Co. LLC, Paducah, KY. More information available from US FCC via Universal Licensing System and Coast Guard Vessel Documentation Center.

Last reported at 2016-Aug-23 00:14 UTC. Time now 2016-Aug-25 08:03 UTC.
Position N 29°56' W 090°20'.

Length 47 m; draft 3.5 m.

Type: Towing. MMSI: 367505510.

Date/timePositionNaut miles runAvg speedWind from/ knotsBaromVisibWave heightAir tempDewpointWater temp
2016-Aug-23 00:14N 29°56' W 090°20'  
2016-Aug-20 15:09N 31°59' W 091°07'6 7.4
2016-Aug-20 14:17N 32°05' W 091°05'3 4.1
2016-Aug-20 13:32N 32°07' W 091°02'8 8.4
2016-Aug-20 12:34N 32°15' W 090°59'6 6.4
2016-Aug-20 11:34N 32°21' W 090°56'7 6.7
2016-Aug-20 10:34N 32°26' W 091°01'7 7.4
2016-Aug-20 09:33N 32°32' W 091°06'8 8.0
2016-Aug-20 08:34N 32°40' W 091°08'  
Track history (hours):
 
Tides and Currents Weather Stations Pressure Air Temp Water Temp Dewpoint Dewpoint Depression Visibility Wind Speed Wind Dir Waves Ship Positions

Myra Eckstein

Owner: Marquette Transportation Co. LLC, Paducah, KY. More information available from US FCC via Universal Licensing System and Coast Guard Vessel Documentation Center.

Last reported at 2016-Aug-23 00:14 UTC. Time now 2016-Aug-25 08:03 UTC.
Position N 29°56' W 090°20'.

Length 47 m; draft 3.5 m.

Type: Towing. MMSI: 367505510.

Date/timePositionNaut miles runAvg speedWind from/ knotsBaromVisibWave heightAir tempDewpointWater temp
2016-Aug-23 00:14N 29°56' W 090°20'  
2016-Aug-20 15:09N 31°59' W 091°07'6 7.4
2016-Aug-20 14:17N 32°05' W 091°05'3 4.1
2016-Aug-20 13:32N 32°07' W 091°02'8 8.4
2016-Aug-20 12:34N 32°15' W 090°59'6 6.4
2016-Aug-20 11:34N 32°21' W 090°56'7 6.7
2016-Aug-20 10:34N 32°26' W 091°01'7 7.4
2016-Aug-20 09:33N 32°32' W 091°06'8 8.0
2016-Aug-20 08:34N 32°40' W 091°08'  

Dump ship's entire track history